createdAt,value
2022-08-17T00:00:33.184Z,19.60
2022-08-17T00:05:35.633Z,24.13
2022-08-17T00:10:37.174Z,20.80
2022-08-17T00:15:38.745Z,21.38
2022-08-17T00:20:40.377Z,19.00
2022-08-17T00:25:42.026Z,18.80
2022-08-17T00:30:53.042Z,19.20
2022-08-17T00:35:55.255Z,18.67
2022-08-17T00:40:58.999Z,18.65
2022-08-17T00:46:01.084Z,19.00
2022-08-17T00:51:02.700Z,20.73
2022-08-17T00:56:04.458Z,19.17
2022-08-17T01:01:06.274Z,18.67
2022-08-17T01:06:07.979Z,22.58
2022-08-17T01:11:10.033Z,23.50
2022-08-17T01:16:11.791Z,23.63
2022-08-17T01:21:13.534Z,21.25
2022-08-17T01:26:15.283Z,21.38
2022-08-17T01:31:17.077Z,20.00
2022-08-17T01:36:18.809Z,20.33
2022-08-17T01:41:20.553Z,22.27
2022-08-17T01:46:22.315Z,24.67
2022-08-17T01:51:24.086Z,20.75
2022-08-17T01:56:25.818Z,25.38
2022-08-17T02:01:27.598Z,25.52
2022-08-17T02:06:29.332Z,26.90
2022-08-17T02:11:31.107Z,24.48
2022-08-17T02:16:37.755Z,23.02
2022-08-17T02:21:39.924Z,24.80
2022-08-17T02:26:41.690Z,25.33
2022-08-17T02:31:43.428Z,20.48
2022-08-17T02:36:45.231Z,22.23
2022-08-17T02:41:46.941Z,24.27
2022-08-17T02:46:48.694Z,23.27
2022-08-17T02:51:50.242Z,21.60
2022-08-17T02:56:51.887Z,21.25
2022-08-17T03:01:53.747Z,20.95
2022-08-17T03:06:55.379Z,25.23
2022-08-17T03:11:58.711Z,21.13
2022-08-17T03:17:00.286Z,23.00
2022-08-17T03:22:19.809Z,24.80
2022-08-17T03:27:23.472Z,31.88
2022-08-17T03:32:25.180Z,28.73
2022-08-17T03:37:26.918Z,26.50
2022-08-17T03:42:31.804Z,26.35
2022-08-17T03:47:34.511Z,21.88
2022-08-17T03:52:36.273Z,24.40
2022-08-17T03:57:38.047Z,26.02
2022-08-17T04:02:39.750Z,29.80
2022-08-17T04:07:41.481Z,29.63
2022-08-17T04:12:43.334Z,31.40
2022-08-17T04:17:45.049Z,34.20
2022-08-17T04:22:46.827Z,32.90
2022-08-17T04:27:51.983Z,27.05
2022-08-17T04:33:03.523Z,33.53
2022-08-17T04:38:12.710Z,33.55
2022-08-17T04:43:14.473Z,31.73
2022-08-17T04:48:20.290Z,27.00
2022-08-17T04:53:22.086Z,29.10
2022-08-17T04:58:23.817Z,37.58
2022-08-17T05:03:25.378Z,24.27
2022-08-17T05:08:27.029Z,23.75
2022-08-17T05:13:28.765Z,25.63
2022-08-17T05:18:30.411Z,22.70
2022-08-17T05:23:42.063Z,19.67
2022-08-17T05:28:44.994Z,20.75
2022-08-17T05:33:47.633Z,18.10
2022-08-17T05:38:49.237Z,12.88
2022-08-17T05:43:54.384Z,17.90
2022-08-17T05:48:57.858Z,18.00
2022-08-17T05:53:59.415Z,16.50
2022-08-17T05:59:01.075Z,18.63
2022-08-17T06:04:02.651Z,17.60
2022-08-17T06:09:04.370Z,15.07
2022-08-17T06:14:06.179Z,19.52
2022-08-17T06:19:07.870Z,16.10
2022-08-17T06:24:09.554Z,19.15
2022-08-17T06:29:18.681Z,15.65
2022-08-17T06:34:20.650Z,17.50
2022-08-17T06:39:22.316Z,16.38
2022-08-17T06:44:42.172Z,18.48
2022-08-17T06:49:45.757Z,14.80
2022-08-17T06:54:47.521Z,17.98
2022-08-17T06:59:56.357Z,16.15
2022-08-17T07:04:58.533Z,12.05
2022-08-17T07:10:00.302Z,14.77
2022-08-17T07:15:02.104Z,12.63
2022-08-17T07:20:03.702Z,8.02
2022-08-17T07:25:05.553Z,11.05
2022-08-17T07:30:10.617Z,9.55
2022-08-17T07:35:12.828Z,11.90
2022-08-17T07:40:17.247Z,9.07
2022-08-17T07:45:18.900Z,10.73
2022-08-17T07:50:25.364Z,10.68
2022-08-17T07:55:27.424Z,10.43
2022-08-17T08:00:32.241Z,11.27
2022-08-17T08:05:49.843Z,10.93
2022-08-17T08:10:52.057Z,10.45
2022-08-17T08:15:54.649Z,12.18
2022-08-17T08:20:56.507Z,9.88
2022-08-17T08:25:58.256Z,12.07
2022-08-17T08:30:59.856Z,8.77
2022-08-17T08:36:01.463Z,6.57
2022-08-17T08:41:03.028Z,7.00
2022-08-17T08:46:04.609Z,7.75
2022-08-17T08:51:06.196Z,10.25
2022-08-17T08:56:10.113Z,7.85
2022-08-17T09:01:17.124Z,9.07
2022-08-17T09:06:33.313Z,10.40
2022-08-17T09:12:02.109Z,10.05
2022-08-17T09:17:02.795Z,11.80
2022-08-17T09:22:04.579Z,10.15
2022-08-17T09:27:06.303Z,7.13
2022-08-17T09:32:08.065Z,8.60
2022-08-17T09:37:09.848Z,13.00
2022-08-17T09:42:11.399Z,10.95
2022-08-17T09:47:12.971Z,10.13
2022-08-17T09:52:14.758Z,5.63
2022-08-17T09:57:29.796Z,7.88
2022-08-17T10:02:32.368Z,6.82
2022-08-17T10:07:34.191Z,6.53
2022-08-17T10:12:35.921Z,6.05
2022-08-17T10:17:39.837Z,6.47
2022-08-17T10:22:41.406Z,6.10
2022-08-17T10:27:43.433Z,6.20
2022-08-17T10:32:45.106Z,8.93
2022-08-17T10:37:46.780Z,10.23
2022-08-17T10:42:48.395Z,7.93
2022-08-17T10:47:55.417Z,8.25
2022-08-17T10:52:57.742Z,6.72
2022-08-17T10:57:59.345Z,9.43
2022-08-17T11:03:00.957Z,8.02
2022-08-17T11:08:02.701Z,10.43
2022-08-17T11:13:06.327Z,11.55
2022-08-17T11:18:08.087Z,7.80
2022-08-17T11:23:09.642Z,10.30
2022-08-17T11:28:11.201Z,11.40
2022-08-17T11:33:13.050Z,7.40
2022-08-17T11:38:16.346Z,6.20
2022-08-17T11:43:18.427Z,5.55
2022-08-17T11:48:28.858Z,6.00
2022-08-17T11:53:31.028Z,8.40
2022-08-17T11:58:32.587Z,10.43
2022-08-17T12:03:34.339Z,7.35
2022-08-17T12:08:35.980Z,8.40
2022-08-17T12:13:39.697Z,9.65
2022-08-17T12:18:41.535Z,6.53
2022-08-17T12:23:44.177Z,6.60
2022-08-17T12:28:46.139Z,7.40
2022-08-17T12:33:47.728Z,7.72
2022-08-17T12:38:49.313Z,6.53
2022-08-17T12:43:50.887Z,6.22
2022-08-17T12:48:59.208Z,5.57
2022-08-17T12:54:01.568Z,5.97
2022-08-17T12:59:03.278Z,6.10
2022-08-17T13:04:04.994Z,8.75
2022-08-17T13:09:06.556Z,9.15
2022-08-17T13:14:08.180Z,7.22
2022-08-17T13:19:09.948Z,9.77
2022-08-17T13:24:11.605Z,6.47
2022-08-17T13:29:13.453Z,7.18
2022-08-17T13:34:15.199Z,5.88
2022-08-17T13:39:17.019Z,6.15
2022-08-17T13:44:18.608Z,8.40
2022-08-17T13:49:20.280Z,6.28
2022-08-17T13:54:21.851Z,9.10
2022-08-17T13:59:53.622Z,5.78
2022-08-17T14:04:45.253Z,6.85
2022-08-17T14:09:46.923Z,7.50
2022-08-17T14:14:48.769Z,6.45
2022-08-17T14:19:50.403Z,6.50
2022-08-17T14:24:51.970Z,6.13
2022-08-17T14:29:53.709Z,8.07
2022-08-17T14:34:55.458Z,5.47
2022-08-17T14:39:57.093Z,7.57
2022-08-17T14:44:58.786Z,6.35
2022-08-17T14:50:00.422Z,8.43
2022-08-17T14:55:02.170Z,5.63
2022-08-17T15:00:03.920Z,8.15
2022-08-17T15:05:05.683Z,8.02
2022-08-17T15:10:07.516Z,8.05
2022-08-17T15:15:09.188Z,8.30
2022-08-17T15:20:14.694Z,7.35
2022-08-17T15:25:16.766Z,7.93
2022-08-17T15:30:18.515Z,5.85
2022-08-17T15:35:26.855Z,7.45
2022-08-17T15:40:30.608Z,8.85
2022-08-17T15:45:36.742Z,7.53
2022-08-17T15:50:38.410Z,6.75
2022-08-17T15:55:40.007Z,7.78
2022-08-17T16:00:53.169Z,6.32
2022-08-17T16:06:03.207Z,5.45
2022-08-17T16:11:04.943Z,7.38
2022-08-17T16:16:06.695Z,10.15
2022-08-17T16:21:08.298Z,8.50
2022-08-17T16:26:09.896Z,5.72
2022-08-17T16:31:11.662Z,13.25
2022-08-17T16:36:13.303Z,5.22
2022-08-17T16:41:15.148Z,8.32
2022-08-17T16:46:16.897Z,8.05
2022-08-17T16:51:18.455Z,9.15
2022-08-17T16:56:20.100Z,8.88
2022-08-17T17:01:21.738Z,14.20
2022-08-17T17:06:23.333Z,10.20
2022-08-17T17:11:25.052Z,9.68
2022-08-17T17:16:26.694Z,13.27
2022-08-17T17:21:28.505Z,7.82
2022-08-17T17:26:30.376Z,9.52
2022-08-17T17:31:32.067Z,9.65
2022-08-17T17:36:33.710Z,10.30
2022-08-17T17:41:35.253Z,8.32
2022-08-17T17:46:36.844Z,10.23
2022-08-17T17:51:54.956Z,11.38
2022-08-17T17:57:00.267Z,16.60
2022-08-17T18:02:02.037Z,11.77
2022-08-17T18:07:03.682Z,12.55
2022-08-17T18:12:05.249Z,16.92
2022-08-17T18:17:07.583Z,14.45
2022-08-17T18:22:14.148Z,11.93
2022-08-17T18:27:16.107Z,13.57
2022-08-17T18:32:17.870Z,13.65
2022-08-17T18:37:19.578Z,15.68
2022-08-17T18:42:21.422Z,12.77
2022-08-17T18:47:23.039Z,14.88
2022-08-17T18:52:24.914Z,30.08
2022-08-17T18:57:26.642Z,21.83
2022-08-17T19:02:44.707Z,13.88
2022-08-17T19:07:47.794Z,13.68
2022-08-17T19:12:49.489Z,17.38
2022-08-17T19:17:51.331Z,21.95
2022-08-17T19:22:53.081Z,14.95
2022-08-17T19:27:57.810Z,15.73
2022-08-17T19:32:59.606Z,25.13
2022-08-17T19:38:01.354Z,17.63
2022-08-17T19:43:03.116Z,20.83
2022-08-17T19:48:05.172Z,18.23
2022-08-17T19:53:06.968Z,21.30
2022-08-17T19:58:08.700Z,22.00
2022-08-17T20:03:16.129Z,23.92
2022-08-17T20:08:18.887Z,22.67
2022-08-17T20:13:33.352Z,15.63
2022-08-17T20:18:35.879Z,16.70
2022-08-17T20:23:37.626Z,18.92
2022-08-17T20:28:39.416Z,22.20
2022-08-17T20:33:41.127Z,24.48
2022-08-17T20:38:42.887Z,25.63
2022-08-17T20:43:44.680Z,19.80
2022-08-17T20:48:46.930Z,20.30
2022-08-17T20:53:48.774Z,17.58
2022-08-17T20:58:50.408Z,19.38
2022-08-17T21:03:52.428Z,19.08
2022-08-17T21:08:54.081Z,17.95
2022-08-17T21:13:55.801Z,24.05
2022-08-17T21:18:57.349Z,18.98
2022-08-17T21:23:59.018Z,18.15
2022-08-17T21:29:01.667Z,19.13
2022-08-17T21:34:22.368Z,17.45
2022-08-17T21:39:24.090Z,14.10
2022-08-17T21:44:33.057Z,15.05
2022-08-17T21:49:37.658Z,16.67
2022-08-17T21:54:39.445Z,18.73
2022-08-17T21:59:41.151Z,14.60
2022-08-17T22:04:42.906Z,14.32
2022-08-17T22:09:44.638Z,17.73
2022-08-17T22:14:51.736Z,17.17
2022-08-17T22:19:55.359Z,16.40
2022-08-17T22:24:57.706Z,15.32
2022-08-17T22:29:59.362Z,15.23
2022-08-17T22:35:00.918Z,14.13
2022-08-17T22:40:02.774Z,14.35
2022-08-17T22:45:04.466Z,16.30
2022-08-17T22:50:06.194Z,16.92
2022-08-17T22:55:09.163Z,20.55
2022-08-17T23:00:11.277Z,16.45
2022-08-17T23:05:14.319Z,14.55
2022-08-17T23:10:16.043Z,18.90
2022-08-17T23:15:17.793Z,19.27
2022-08-17T23:20:19.581Z,18.00
2022-08-17T23:25:21.306Z,19.27
2022-08-17T23:30:24.113Z,17.63
2022-08-17T23:35:40.613Z,19.85
2022-08-17T23:40:42.891Z,22.55
2022-08-17T23:45:44.453Z,21.55
2022-08-17T23:50:46.164Z,18.63
2022-08-17T23:55:47.927Z,23.88
